Phenix City, Alabama
Current Conditions -  °F | °C
As of 2:51 AM on Saturday 01 Nov 2014 (Local Time) from KCSG Reporting Station
Clear Clear  
Wind Chill: 32°   Ceiling: Unl
Heat Index: 39°   Visibility: 10mi
Dew Point: 25°   Wind: 12mph
Humidity: 57%   Direction: 310°NW
Pressure: 30.05"   Gusts: NA
Location:  32.47°N, 85°W
Report Text: KCSG 010751Z 31010KT 10SM CLR 04/M04 A3005 RMK AO2 SLP174 T00391039
Loading
Personal Weather Stations






























Interactive Weather Map
Tropical Storm Tracking
New forecast layout! Learn more

10-Day Weather Forecast

Advertisements
Track Severe Weather on mobile